Time;durP1;ratioP1;P1;durP2;ratioP2;P2;SDS_P1;SDS_P2;PMS_P1;PMS_P2;Temp;Humidity;BMP_temperature;BMP_pressure;BME280_temperature;BME280_humidity;BME280_pressure;Samples;Min_cycle;Max_cycle;Signal;HPM_P1;HPM_P2
2023/08/29 00:04:03;;;;;;;3.67;2.43;;;;;;;15.02;100.00;100221.70;5252075;55;1141000;-67
2023/08/29 00:09:10;;;;;;;5.65;2.42;;;;;;;15.01;100.00;100178.75;5186892;56;1141075;-67
2023/08/29 00:14:16;;;;;;;2.55;2.25;;;;;;;14.98;100.00;100136.94;5187484;55;1140845;-68
2023/08/29 00:19:21;;;;;;;4.10;3.03;;;;;;;14.98;100.00;100121.80;5206807;56;1140650;-66
2023/08/29 00:24:28;;;;;;;2.80;2.60;;;;;;;14.96;100.00;100113.66;5186719;55;1140705;-66
2023/08/29 00:29:34;;;;;;;5.57;2.67;;;;;;;15.11;100.00;100110.25;5187724;56;1140838;-69
2023/08/29 00:34:40;;;;;;;2.60;2.40;;;;;;;15.24;100.00;100077.84;5239222;55;1140838;-66
2023/08/29 00:39:46;;;;;;;2.80;2.57;;;;;;;15.28;100.00;100065.02;5276681;55;1140688;-66
2023/08/29 00:44:51;;;;;;;2.40;2.20;;;;;;;15.31;100.00;100088.19;5241765;55;1140847;-69
2023/08/29 00:49:58;;;;;;;3.37;2.20;;;;;;;15.38;100.00;100065.74;5277386;55;1140800;-70
2023/08/29 00:55:03;;;;;;;4.80;2.93;;;;;;;15.42;100.00;100043.11;5298058;55;1151691;-65
2023/08/29 01:00:11;;;;;;;7.83;2.95;;;;;;;15.46;100.00;100063.09;5276853;55;1141110;-65
2023/08/29 01:05:17;;;;;;;2.27;1.83;;;;;;;15.49;100.00;100070.27;5208806;55;1140765;-67
2023/08/29 01:10:30;;;;;;;2.03;1.80;;;;;;;15.49;100.00;100072.94;5207799;56;1141246;-66
2023/08/29 01:15:37;;;;;;;2.80;1.73;;;;;;;15.48;100.00;100062.44;5180607;54;1140902;-65
2023/08/29 01:20:43;;;;;;;1.43;1.33;;;;;;;15.49;100.00;100042.78;5175554;54;1140840;-65
2023/08/29 01:25:53;;;;;;;5.40;1.60;;;;;;;15.51;100.00;100016.81;5195768;55;1140865;-68
2023/08/29 01:31:00;;;;;;;1.57;1.13;;;;;;;15.51;100.00;100039.47;5207278;55;1140628;-67
2023/08/29 01:36:06;;;;;;;7.37;2.67;;;;;;;15.49;100.00;100059.61;5263962;55;1140792;-65
2023/08/29 01:41:12;;;;;;;1.65;1.20;;;;;;;15.48;100.00;100077.09;5284883;55;1140789;-69
2023/08/29 01:46:18;;;;;;;2.12;1.25;;;;;;;15.48;100.00;100038.45;5264469;55;1141014;-65
2023/08/29 01:51:24;;;;;;;2.47;2.10;;;;;;;15.46;100.00;100005.80;5264241;55;1141060;-68
2023/08/29 01:56:31;;;;;;;4.03;1.77;;;;;;;15.41;100.00;99959.67;5284982;55;1140786;-70
2023/08/29 02:01:38;;;;;;;1.83;1.63;;;;;;;15.42;100.00;100009.80;5260153;55;1138697;-66
2023/08/29 02:06:44;;;;;;;1.93;1.23;;;;;;;15.47;100.00;100011.46;5174970;56;1140981;-68
2023/08/29 02:11:50;;;;;;;1.00;1.00;;;;;;;15.52;100.00;100021.64;5194552;55;1140847;-64
2023/08/29 02:16:56;;;;;;;6.97;1.40;;;;;;;15.52;100.00;100017.15;5168595;55;1140872;-66
2023/08/29 02:22:01;;;;;;;1.10;1.10;;;;;;;15.53;100.00;100055.30;5152722;56;1140713;-69
2023/08/29 02:27:08;;;;;;;1.98;1.57;;;;;;;15.49;100.00;100084.94;5203357;55;1140894;-67
2023/08/29 02:32:14;;;;;;;3.60;1.50;;;;;;;15.60;100.00;100090.98;5227116;55;1140798;-68
2023/08/29 02:37:20;;;;;;;1.98;1.35;;;;;;;15.69;100.00;100079.38;5148047;55;1140966;-69
2023/08/29 02:42:26;;;;;;;3.70;1.93;;;;;;;15.65;100.00;100047.36;5167868;56;1141030;-68
2023/08/29 02:47:31;;;;;;;1.60;1.50;;;;;;;15.64;100.00;100025.70;5147599;55;1140974;-65
2023/08/29 02:52:37;;;;;;;1.50;1.37;;;;;;;15.60;100.00;100027.84;5146218;56;1141053;-68
2023/08/29 02:57:42;;;;;;;4.47;1.50;;;;;;;15.57;100.00;100071.34;5194930;55;1140930;-70
2023/08/29 03:02:48;;;;;;;2.50;1.50;;;;;;;15.39;100.00;100083.41;5179754;54;1140869;-65
2023/08/29 03:07:55;;;;;;;1.90;1.13;;;;;;;15.32;100.00;100061.88;5162465;54;1140728;-68
2023/08/29 03:13:01;;;;;;;2.43;1.70;;;;;;;15.23;100.00;100054.86;5161371;55;1140898;-64
2023/08/29 03:18:07;;;;;;;8.07;2.00;;;;;;;15.08;100.00;99954.75;5172722;56;1149107;-66
2023/08/29 03:23:30;;;;;;;2.50;1.80;;;;;;;14.94;100.00;99793.44;5183764;55;1138750;-68
2023/08/29 03:28:37;;;;;;;3.27;2.10;;;;;;;14.90;100.00;99871.97;5240025;55;1138770;-64
2023/08/29 03:33:45;;;;;;;8.13;2.20;;;;;;;14.96;100.00;99946.72;5261031;55;1138731;-66
2023/08/29 03:38:50;;;;;;;2.17;2.07;;;;;;;15.02;100.00;99905.28;5239742;55;1139057;-66
2023/08/29 03:43:56;;;;;;;2.17;1.97;;;;;;;15.04;100.00;99884.16;5239961;55;1138715;-68
2023/08/29 03:49:01;;;;;;;2.20;2.00;;;;;;;15.07;100.00;99897.15;5240090;55;1138663;-64
2023/08/29 03:54:07;;;;;;;4.43;2.23;;;;;;;15.09;100.00;99879.18;5260219;55;1138695;-69
2023/08/29 03:59:13;;;;;;;4.28;2.02;;;;;;;15.14;100.00;99797.42;5240111;55;1138911;-66
2023/08/29 04:04:19;;;;;;;7.90;2.50;;;;;;;15.16;100.00;99803.42;5238043;55;1138763;-66
2023/08/29 04:09:24;;;;;;;5.43;2.00;;;;;;;15.14;100.00;99783.61;5261323;55;1138758;-69
2023/08/29 04:14:31;;;;;;;4.67;3.37;;;;;;;15.12;100.00;99785.61;5227307;55;1138948;-68
2023/08/29 04:19:37;;;;;;;2.50;2.30;;;;;;;15.12;100.00;99766.96;5189648;55;1138683;-66
2023/08/29 04:24:43;;;;;;;4.53;2.50;;;;;;;15.16;100.00;99787.94;5207593;55;1138616;-68
2023/08/29 04:29:48;;;;;;;4.40;2.30;;;;;;;15.21;100.00;99792.28;5183551;56;1138706;-70
2023/08/29 04:34:54;;;;;;;3.43;2.83;;;;;;;15.18;100.00;99772.13;5183323;56;1138722;-67
2023/08/29 04:40:00;;;;;;;5.68;3.04;;;;;;;15.15;100.00;99755.15;5183949;56;1138731;-70
2023/08/29 04:45:07;;;;;;;5.73;2.50;;;;;;;15.10;100.00;99781.47;5183670;56;1138757;-67
2023/08/29 04:50:14;;;;;;;2.37;2.17;;;;;;;15.11;100.00;99781.30;5182810;56;1138611;-68
2023/08/29 04:55:21;;;;;;;2.47;2.27;;;;;;;15.10;100.00;99793.45;5211630;55;1138848;-66
2023/08/29 05:00:28;;;;;;;2.13;2.03;;;;;;;15.13;100.00;99791.27;5248908;55;1138558;-68
2023/08/29 05:05:34;;;;;;;2.13;2.00;;;;;;;15.18;100.00;99789.45;5215865;55;1138604;-66
2023/08/29 05:10:41;;;;;;;6.63;3.13;;;;;;;15.18;100.00;99774.80;5221183;55;1138846;-70
2023/08/29 05:15:46;;;;;;;2.80;2.60;;;;;;;15.23;100.00;99758.33;5219611;55;1138663;-67
2023/08/29 05:20:52;;;;;;;7.73;3.10;;;;;;;15.27;100.00;99725.03;5199043;55;1138688;-69
2023/08/29 05:25:57;;;;;;;2.73;2.53;;;;;;;15.27;100.00;99722.36;5266345;55;1138623;-68
2023/08/29 05:31:03;;;;;;;4.15;2.58;;;;;;;15.24;100.00;99707.55;5264547;55;1138983;-70
2023/08/29 05:36:09;;;;;;;2.90;2.70;;;;;;;15.26;100.00;99714.88;5285141;55;1138638;-66
2023/08/29 05:41:15;;;;;;;3.12;2.92;;;;;;;15.29;100.00;99693.70;5263653;55;1138793;-69
2023/08/29 05:46:20;;;;;;;2.50;2.30;;;;;;;15.32;100.00;99692.86;5263490;55;1138587;-65
2023/08/29 05:51:27;;;;;;;3.03;2.73;;;;;;;15.32;100.00;99720.00;5284665;55;1138717;-68
2023/08/29 05:56:33;;;;;;;2.80;2.57;;;;;;;15.35;100.00;99734.33;5218037;54;1138717;-67
2023/08/29 06:01:38;;;;;;;3.00;2.80;;;;;;;15.40;100.00;99751.48;5179660;55;1138773;-70
2023/08/29 06:06:44;;;;;;;3.37;2.37;;;;;;;15.44;100.00;99741.30;5285348;55;1138758;-66
2023/08/29 06:11:49;;;;;;;2.10;2.00;;;;;;;15.60;100.00;99723.14;5265128;55;1138662;-69
2023/08/29 06:16:55;;;;;;;2.20;2.00;;;;;;;15.82;100.00;99735.75;5228910;53;1138879;-69
2023/08/29 06:22:01;;;;;;;3.78;2.12;;;;;;;15.89;100.00;99742.05;5228572;53;1138848;-69
2023/08/29 06:27:06;;;;;;;8.10;2.47;;;;;;;15.92;100.00;99767.55;5261758;55;1138632;-66
2023/08/29 06:32:12;;;;;;;4.42;1.58;;;;;;;15.88;100.00;99775.58;5199183;55;1265808;-65
2023/08/29 06:37:18;;;;;;;2.37;1.93;;;;;;;15.87;100.00;99784.08;5221638;55;1138649;-67
2023/08/29 06:42:23;;;;;;;2.67;2.00;;;;;;;15.87;100.00;99781.91;5240846;55;1138710;-67
2023/08/29 06:47:29;;;;;;;3.00;1.77;;;;;;;15.89;100.00;99750.05;5221778;55;1138925;-68
2023/08/29 06:52:35;;;;;;;5.60;2.47;;;;;;;15.88;100.00;99727.08;5247123;55;1138857;-66
2023/08/29 06:57:40;;;;;;;5.53;2.00;;;;;;;15.87;100.00;99741.41;5297621;55;1138728;-65
2023/08/29 07:02:48;;;;;;;2.50;2.30;;;;;;;15.87;100.00;99783.25;5261511;55;1138846;-67
2023/08/29 07:07:53;;;;;;;3.37;2.47;;;;;;;15.88;100.00;99771.08;5120709;56;1138590;-69
2023/08/29 07:12:59;;;;;;;4.53;2.00;;;;;;;15.91;100.00;99736.54;5222379;55;1138662;-66
2023/08/29 07:18:05;;;;;;;3.57;2.60;;;;;;;15.89;100.00;99775.91;5257150;55;1138905;-71
2023/08/29 07:23:10;;;;;;;5.43;2.23;;;;;;;15.78;100.00;99761.09;5218600;55;1138759;-65
2023/08/29 07:28:16;;;;;;;4.20;2.20;;;;;;;15.76;100.00;99767.09;5180506;55;1138868;-68
2023/08/29 07:33:22;;;;;;;5.55;2.47;;;;;;;15.82;100.00;99771.25;5227762;55;1139068;-66
2023/08/29 07:38:27;;;;;;;4.67;1.98;;;;;;;15.83;100.00;99758.25;5206976;55;1138772;-66
2023/08/29 07:43:33;;;;;;;4.93;3.10;;;;;;;15.89;100.00;99746.05;5207003;55;1138828;-66
2023/08/29 07:48:39;;;;;;;3.27;2.67;;;;;;;15.97;100.00;99766.53;5180972;54;1138632;-66
2023/08/29 07:53:44;;;;;;;4.83;2.60;;;;;;;16.04;100.00;99775.00;5096097;56;1138994;-67
2023/08/29 07:58:50;;;;;;;2.53;2.10;;;;;;;16.12;100.00;99766.98;5152549;56;1138938;-66
2023/08/29 08:03:56;;;;;;;2.30;1.65;;;;;;;16.20;100.00;99766.09;5198333;55;1138962;-65
2023/08/29 08:09:04;;;;;;;2.77;2.47;;;;;;;16.28;100.00;99772.75;5229074;55;1138752;-64
2023/08/29 08:14:11;;;;;;;4.83;2.50;;;;;;;16.34;100.00;99757.89;5240872;55;1138790;-70
2023/08/29 08:19:16;;;;;;;5.33;3.20;;;;;;;16.37;100.00;99758.34;5232517;55;1138640;-66
2023/08/29 08:24:22;;;;;;;3.08;2.40;;;;;;;16.41;100.00;99742.32;5228480;55;1138991;-65
2023/08/29 08:29:28;;;;;;;4.07;2.27;;;;;;;16.41;100.00;99722.30;5207753;54;1139313;-66
2023/08/29 08:34:33;;;;;;;4.33;2.70;;;;;;;16.43;100.00;99715.46;5206420;55;1138976;-68
2023/08/29 08:39:39;;;;;;;5.60;2.80;;;;;;;16.44;100.00;99728.63;5228503;55;1138865;-69
2023/08/29 08:44:45;;;;;;;3.40;2.50;;;;;;;16.39;100.00;99726.98;5221001;55;1139099;-67
2023/08/29 08:49:51;;;;;;;10.23;3.17;;;;;;;16.44;100.00;99733.14;5239516;55;1138482;-68
2023/08/29 08:54:56;;;;;;;5.70;2.43;;;;;;;16.54;100.00;99733.23;5227454;55;1140812;-67
2023/08/29 09:00:02;;;;;;;4.50;2.73;;;;;;;16.62;100.00;99750.22;5203773;54;1138712;-68
2023/08/29 09:05:08;;;;;;;6.70;3.23;;;;;;;16.66;100.00;99756.87;5226200;55;1138829;-68
2023/08/29 09:10:16;;;;;;;5.75;2.92;;;;;;;16.67;100.00;99754.54;5240795;55;1138960;-66
2023/08/29 09:15:22;;;;;;;3.65;2.83;;;;;;;16.65;100.00;99745.37;5261144;55;1138934;-68
2023/08/29 09:20:33;;;;;;;6.72;3.40;;;;;;;16.65;100.00;99752.58;5196236;55;1138720;-66
2023/08/29 09:25:41;;;;;;;3.92;3.17;;;;;;;16.68;100.00;99752.20;5156484;55;1138536;-69
2023/08/29 09:30:47;;;;;;;11.00;3.30;;;;;;;16.68;100.00;99735.67;5196117;54;1138622;-68
2023/08/29 09:35:53;;;;;;;3.07;2.83;;;;;;;16.69;100.00;99736.00;5218648;55;1140721;-68
2023/08/29 09:40:59;;;;;;;4.93;2.90;;;;;;;16.70;100.00;99755.02;5209392;55;1138762;-69
2023/08/29 09:46:05;;;;;;;3.33;3.02;;;;;;;16.72;100.00;99765.53;5211039;55;1138740;-67
2023/08/29 09:51:11;;;;;;;5.63;3.03;;;;;;;16.72;100.00;99766.36;5241344;55;1138724;-68
2023/08/29 09:56:20;;;;;;;4.75;3.20;;;;;;;16.72;100.00;99762.86;5205548;55;1138882;-67
2023/08/29 10:01:26;;;;;;;12.60;3.93;;;;;;;16.75;100.00;99752.66;5205682;55;1138680;-70
2023/08/29 10:06:32;;;;;;;7.03;3.53;;;;;;;16.78;100.00;99754.16;5243758;55;1141262;-70
2023/08/29 10:11:39;;;;;;;5.97;3.37;;;;;;;16.81;100.00;99761.78;5178706;55;1138764;-69
2023/08/29 10:16:44;;;;;;;4.40;4.00;;;;;;;16.84;100.00;99773.45;5210891;55;1138839;-67
2023/08/29 10:21:53;;;;;;;5.77;4.47;;;;;;;16.89;100.00;99767.09;5238191;55;1138798;-68
2023/08/29 10:27:00;;;;;;;4.26;3.86;;;;;;;16.91;100.00;99766.41;5222853;55;1138614;-66
2023/08/29 10:32:06;;;;;;;8.73;4.50;;;;;;;16.96;100.00;99772.56;5202806;55;1138901;-66
2023/08/29 10:37:23;;;;;;;4.47;3.83;;;;;;;16.98;100.00;99769.18;5235208;55;1139162;-68
2023/08/29 10:42:32;;;;;;;6.50;3.65;;;;;;;17.02;100.00;99766.48;5207003;55;1139228;-68
2023/08/29 10:47:42;;;;;;;6.20;3.87;;;;;;;17.07;100.00;99755.60;5207172;55;1138959;-68
2023/08/29 10:52:54;;;;;;;4.77;3.60;;;;;;;17.12;100.00;99753.70;5247887;55;1138658;-69
2023/08/29 10:57:58;;;;;;;4.80;3.97;;;;;;;17.16;100.00;99757.69;5078932;55;1260735;-68
2023/08/29 11:03:04;;;;;;;4.30;3.77;;;;;;;17.15;100.00;99756.02;5198954;55;1138676;-67
2023/08/29 11:08:23;;;;;;;7.75;3.87;;;;;;;17.15;100.00;99757.36;5212468;55;1139032;-67
2023/08/29 11:13:28;;;;;;;5.03;4.20;;;;;;;17.20;100.00;99753.15;5231748;55;1138546;-68
2023/08/29 11:18:34;;;;;;;5.50;4.13;;;;;;;17.28;100.00;99740.20;5212276;55;1138979;-68
2023/08/29 11:23:43;;;;;;;11.10;8.30;;;;;;;17.34;100.00;99740.00;5210628;55;1138589;-69
2023/08/29 11:28:49;;;;;;;9.40;6.27;;;;;;;17.39;100.00;99736.28;5241320;55;1140839;-69
2023/08/29 11:33:54;;;;;;;8.97;4.30;;;;;;;17.42;100.00;99718.52;5203164;55;1138679;-68
2023/08/29 11:39:00;;;;;;;4.23;3.83;;;;;;;17.38;100.00;99697.20;5165414;55;1138868;-68
2023/08/29 11:44:05;;;;;;;5.30;4.50;;;;;;;17.48;100.00;99699.09;5152246;56;1139040;-66
2023/08/29 11:49:16;;;;;;;10.43;4.50;;;;;;;17.55;100.00;99710.22;5173144;56;1138963;-66
2023/08/29 11:54:50;;;;;;;4.67;3.65;;;;;;;17.55;100.00;99716.07;5159532;55;1140967;-68
2023/08/29 11:59:56;;;;;;;4.73;3.33;;;;;;;17.56;100.00;99732.44;5209323;55;1139008;-68
2023/08/29 12:05:07;;;;;;;6.58;4.37;;;;;;;17.51;100.00;99735.65;5282985;54;1139000;-67
2023/08/29 12:10:14;;;;;;;5.55;4.87;;;;;;;17.50;100.00;99729.15;5268847;54;1138786;-66
2023/08/29 12:15:19;;;;;;;9.80;5.67;;;;;;;17.52;100.00;99722.61;5103244;56;1138702;-69
2023/08/29 12:20:27;;;;;;;4.60;4.03;;;;;;;17.55;100.00;99720.08;5105385;56;1138635;-66
2023/08/29 12:25:34;;;;;;;7.67;4.10;;;;;;;17.57;100.00;99721.53;5042015;57;1138754;-69
2023/08/29 12:30:40;;;;;;;5.70;3.90;;;;;;;17.55;100.00;99728.10;5058011;56;1139142;-68
2023/08/29 12:35:45;;;;;;;4.33;3.90;;;;;;;17.62;100.00;99728.19;5020568;57;1138850;-69
2023/08/29 12:40:51;;;;;;;6.83;4.20;;;;;;;17.65;100.00;99741.23;4989793;58;1138823;-67
2023/08/29 12:45:57;;;;;;;5.40;4.50;;;;;;;17.68;100.00;99736.85;4962087;58;1138640;-69
2023/08/29 12:51:03;;;;;;;6.63;4.13;;;;;;;17.70;100.00;99736.16;4975250;57;1138818;-68
2023/08/29 12:56:08;;;;;;;5.17;4.67;;;;;;;17.68;100.00;99718.13;5019228;57;1138629;-67
2023/08/29 13:01:17;;;;;;;4.33;3.80;;;;;;;17.67;100.00;99740.03;5036938;57;1138775;-67
2023/08/29 13:06:22;;;;;;;3.83;3.60;;;;;;;17.72;100.00;99749.66;4955057;58;1138983;-68
2023/08/29 13:11:29;;;;;;;3.72;3.30;;;;;;;17.65;100.00;99745.23;5076650;56;1138653;-69
2023/08/29 13:16:37;;;;;;;4.17;3.75;;;;;;;17.53;100.00;99734.97;5126023;56;1138907;-69
2023/08/29 13:21:43;;;;;;;15.40;4.08;;;;;;;17.68;100.00;99755.58;5142785;56;1138560;-67
2023/08/29 13:26:49;;;;;;;4.83;3.92;;;;;;;17.72;100.00;99750.98;5121598;56;1140889;-66
2023/08/29 13:31:56;;;;;;;6.50;4.05;;;;;;;17.63;100.00;99722.66;5123727;56;1139039;-68
2023/08/29 13:37:01;;;;;;;7.30;4.67;;;;;;;17.56;100.00;99713.22;5141986;55;1138826;-68
2023/08/29 13:42:07;;;;;;;4.97;4.47;;;;;;;17.49;100.00;99718.96;5271227;54;1138848;-70
2023/08/29 13:47:12;;;;;;;8.10;4.37;;;;;;;17.45;100.00;99699.45;5309583;54;1138798;-68
2023/08/29 13:52:18;;;;;;;13.13;4.87;;;;;;;17.57;100.00;99706.83;5288124;54;1138882;-68
2023/08/29 13:57:24;;;;;;;6.70;4.50;;;;;;;17.55;100.00;99706.71;5288440;54;1140724;-66
2023/08/29 14:02:30;;;;;;;8.65;4.20;;;;;;;17.56;100.00;99711.05;5316839;54;1138807;-69
2023/08/29 14:07:35;;;;;;;6.50;4.53;;;;;;;17.59;100.00;99709.32;5207837;54;1138990;-71
2023/08/29 14:12:41;;;;;;;7.40;4.28;;;;;;;17.57;100.00;99705.48;5201192;54;1138727;-69
2023/08/29 14:17:47;;;;;;;5.83;4.37;;;;;;;17.57;100.00;99704.16;5229166;54;1139080;-68
2023/08/29 14:22:53;;;;;;;5.35;4.70;;;;;;;17.59;100.00;99702.64;5210482;54;1138936;-67
2023/08/29 14:27:59;;;;;;;7.67;4.97;;;;;;;17.54;100.00;99704.55;5013587;56;1138941;-69
2023/08/29 14:33:05;;;;;;;6.50;4.42;;;;;;;17.50;100.00;99709.92;5205921;54;1138915;-68
2023/08/29 14:38:13;;;;;;;7.58;4.80;;;;;;;17.47;100.00;99702.77;5253352;54;1138903;-67
2023/08/29 14:43:18;;;;;;;6.37;4.97;;;;;;;17.44;100.00;99691.94;5051074;56;1138992;-67
2023/08/29 14:48:24;;;;;;;11.30;5.08;;;;;;;17.47;100.00;99695.58;5137845;56;1138968;-67
2023/08/29 14:53:29;;;;;;;8.25;5.12;;;;;;;17.46;100.00;99693.09;5073811;56;1140894;-69
2023/08/29 14:58:35;;;;;;;7.05;4.92;;;;;;;17.43;100.00;99708.16;5134004;56;1138644;-68
2023/08/29 15:03:40;;;;;;;11.80;5.20;;;;;;;17.40;100.00;99707.20;5093957;55;1138641;-69
2023/08/29 15:08:47;;;;;;;5.57;4.57;;;;;;;17.39;100.00;99706.88;5246933;55;1140798;-69
2023/08/29 15:13:52;;;;;;;6.83;4.83;;;;;;;17.37;100.00;99703.55;5091850;56;1138942;-68
2023/08/29 15:18:58;;;;;;;10.20;7.65;;;;;;;17.36;100.00;99721.94;4970061;57;1138708;-69
2023/08/29 15:24:04;;;;;;;7.78;6.72;;;;;;;17.35;100.00;99742.49;4969447;57;1140777;-67
2023/08/29 15:29:10;;;;;;;14.13;9.55;;;;;;;17.40;100.00;99745.46;4988464;57;1138614;-68
2023/08/29 15:34:16;;;;;;;7.12;6.03;;;;;;;17.50;100.00;99752.70;4969839;57;1140936;-69
2023/08/29 15:39:22;;;;;;;7.02;5.44;;;;;;;17.52;100.00;99742.66;5038136;56;1138781;-67
2023/08/29 15:44:32;;;;;;;7.42;5.53;;;;;;;17.52;100.00;99737.82;5152050;56;1138981;-66
2023/08/29 15:49:38;;;;;;;9.98;7.33;;;;;;;17.54;100.00;99729.95;5127144;56;1138784;-69
2023/08/29 15:54:43;;;;;;;13.30;11.73;;;;;;;17.65;100.00;99724.67;5127344;56;1138922;-66
2023/08/29 15:59:49;;;;;;;30.25;21.02;;;;;;;17.66;100.00;99709.45;5073455;56;1142901;-67
2023/08/29 16:04:55;;;;;;;13.62;8.78;;;;;;;17.62;100.00;99693.42;5063514;56;1143109;-69
2023/08/29 16:10:01;;;;;;;10.50;7.90;;;;;;;17.56;100.00;99689.16;5126974;56;1140788;-69
2023/08/29 16:15:07;;;;;;;11.10;7.30;;;;;;;17.54;100.00;99686.34;5082440;56;1140944;-70
2023/08/29 16:20:13;;;;;;;16.47;10.20;;;;;;;17.49;100.00;99684.20;5062166;57;1141003;-67
2023/08/29 16:25:19;;;;;;;24.23;11.43;;;;;;;17.40;100.00;99680.47;5040969;57;1142962;-69
2023/08/29 16:30:25;;;;;;;24.50;10.60;;;;;;;17.34;100.00;99665.98;4958213;58;1142889;-67
2023/08/29 16:35:30;;;;;;;9.83;6.75;;;;;;;17.30;100.00;99676.71;5035972;56;1142961;-67
2023/08/29 16:40:36;;;;;;;6.90;5.35;;;;;;;17.32;100.00;99691.23;5117051;56;1138848;-68
2023/08/29 16:45:41;;;;;;;8.37;6.10;;;;;;;17.28;100.00;99702.79;5156099;55;1138629;-69
2023/08/29 16:50:49;;;;;;;11.77;6.60;;;;;;;17.21;100.00;99700.53;5236016;55;1138905;-67
2023/08/29 16:55:55;;;;;;;10.48;5.42;;;;;;;17.20;100.00;99713.57;5229417;55;1140957;-67
2023/08/29 17:01:01;;;;;;;11.25;5.37;;;;;;;17.22;100.00;99711.05;5231836;55;1140893;-68
2023/08/29 17:06:06;;;;;;;11.63;5.53;;;;;;;17.23;100.00;99714.55;5217917;54;1141002;-67
2023/08/29 17:11:12;;;;;;;9.28;5.45;;;;;;;17.27;100.00;99713.66;5164936;54;1140656;-67
2023/08/29 17:16:17;;;;;;;6.97;5.13;;;;;;;17.28;100.00;99701.95;5143694;55;1138735;-68
2023/08/29 17:21:23;;;;;;;7.03;5.07;;;;;;;17.31;100.00;99702.43;5143735;55;1138726;-70
2023/08/29 17:26:29;;;;;;;7.73;4.70;;;;;;;17.33;100.00;99698.24;5163462;55;1138942;-67
2023/08/29 17:31:34;;;;;;;7.50;5.58;;;;;;;17.29;100.00;99703.11;4975224;57;1138805;-67
2023/08/29 17:36:40;;;;;;;8.50;5.85;;;;;;;17.27;100.00;99689.60;5141153;55;1138835;-70
2023/08/29 17:41:46;;;;;;;6.80;5.00;;;;;;;17.29;100.00;99702.28;5161623;55;1138592;-67
2023/08/29 17:46:51;;;;;;;7.93;5.30;;;;;;;17.29;100.00;99694.27;5239821;54;1138885;-67
2023/08/29 17:51:57;;;;;;;6.43;5.33;;;;;;;17.27;100.00;99684.26;5271082;55;1138652;-71
2023/08/29 17:57:02;;;;;;;7.46;5.46;;;;;;;17.28;100.00;99685.92;5209272;54;1138890;-68
2023/08/29 18:02:10;;;;;;;5.23;4.67;;;;;;;17.38;100.00;99683.83;5245862;54;1138961;-67
2023/08/29 18:07:16;;;;;;;8.03;5.17;;;;;;;17.39;100.00;99678.81;5275662;55;1138695;-69
2023/08/29 18:12:22;;;;;;;10.90;5.67;;;;;;;17.37;100.00;99680.84;5275922;55;1138772;-67
2023/08/29 18:17:28;;;;;;;8.68;5.37;;;;;;;17.37;100.00;99684.84;5216889;54;1140978;-69
2023/08/29 18:22:34;;;;;;;8.45;5.22;;;;;;;17.35;100.00;99677.01;5195821;55;1138615;-69
2023/08/29 18:27:39;;;;;;;6.58;4.40;;;;;;;17.34;100.00;99684.70;5196757;55;1138602;-69
2023/08/29 18:32:45;;;;;;;5.20;4.70;;;;;;;17.32;100.00;99673.36;5296982;55;1138872;-66
2023/08/29 18:37:51;;;;;;;9.13;5.22;;;;;;;17.23;100.00;99688.66;5275828;54;1138870;-69
2023/08/29 18:43:02;;;;;;;5.80;4.50;;;;;;;17.21;100.00;99704.04;5275685;55;1138851;-66
2023/08/29 18:48:08;;;;;;;5.10;4.60;;;;;;;17.16;100.00;99698.40;5275919;54;1138771;-68
2023/08/29 18:53:14;;;;;;;7.13;5.80;;;;;;;17.09;100.00;99706.00;5251486;54;1138673;-69
2023/08/29 18:58:19;;;;;;;8.30;6.40;;;;;;;16.99;100.00;99708.06;5230530;54;1138798;-68
2023/08/29 19:03:25;;;;;;;9.60;6.63;;;;;;;16.95;100.00;99708.12;5193314;54;1140013;-70
2023/08/29 19:08:31;;;;;;;8.23;6.78;;;;;;;17.00;100.00;99711.89;5160692;55;1138713;-70
2023/08/29 19:13:36;;;;;;;10.88;7.20;;;;;;;17.01;100.00;99712.23;5173625;54;1138869;-70
2023/08/29 19:18:42;;;;;;;8.53;6.60;;;;;;;17.08;100.00;99719.03;5286652;54;1140873;-70
2023/08/29 19:23:47;;;;;;;9.70;7.20;;;;;;;17.09;100.00;99728.20;5309130;54;1138941;-70
2023/08/29 19:28:53;;;;;;;7.73;5.87;;;;;;;17.05;100.00;99725.56;5201049;54;1138704;-69
2023/08/29 19:33:58;;;;;;;6.40;5.70;;;;;;;17.04;100.00;99723.89;5198277;55;1138588;-70
2023/08/29 19:39:04;;;;;;;8.50;5.27;;;;;;;16.97;100.00;99728.28;5198009;55;1138873;-68
2023/08/29 19:44:10;;;;;;;7.03;5.03;;;;;;;16.93;100.00;99735.52;5218570;54;1138928;-66
2023/08/29 19:49:16;;;;;;;10.43;5.00;;;;;;;16.85;100.00;99729.21;5197945;55;1138555;-69
2023/08/29 19:54:21;;;;;;;7.53;5.40;;;;;;;16.78;100.00;99706.92;5244862;54;1228909;-67
2023/08/29 19:59:27;;;;;;;7.90;5.28;;;;;;;16.79;100.00;99683.21;5283105;54;1139039;-67
2023/08/29 20:04:32;;;;;;;9.48;5.58;;;;;;;16.82;100.00;99684.67;5010703;56;1138769;-67
2023/08/29 20:09:38;;;;;;;10.20;6.97;;;;;;;16.79;100.00;99701.07;5233652;54;1138949;-67
2023/08/29 20:14:44;;;;;;;9.10;6.10;;;;;;;16.81;100.00;99699.03;5242355;54;1140806;-67
2023/08/29 20:19:50;;;;;;;6.60;5.67;;;;;;;16.79;100.00;99685.88;5228811;54;1138946;-70
2023/08/29 20:24:56;;;;;;;9.90;6.57;;;;;;;16.77;100.00;99681.72;5229778;54;1138942;-67
2023/08/29 20:30:01;;;;;;;9.10;6.33;;;;;;;16.74;100.00;99679.41;5054654;56;1138830;-69
2023/08/29 20:35:07;;;;;;;9.43;5.77;;;;;;;16.74;100.00;99666.05;5076940;56;1138826;-71
2023/08/29 20:40:14;;;;;;;8.90;7.10;;;;;;;16.72;100.00;99656.88;5056743;56;1139013;-69
2023/08/29 20:45:19;;;;;;;6.20;5.57;;;;;;;16.72;100.00;99641.37;5057342;56;1138706;-69
2023/08/29 20:50:25;;;;;;;10.07;5.70;;;;;;;16.76;100.00;99635.49;5077121;56;1138840;-70
2023/08/29 20:55:32;;;;;;;7.42;6.15;;;;;;;16.78;100.00;99628.14;5042293;56;1140822;-66
2023/08/29 21:00:37;;;;;;;20.50;6.53;;;;;;;16.84;100.00;99630.06;5139192;55;1138714;-66
2023/08/29 21:05:43;;;;;;;9.20;5.40;;;;;;;16.84;100.00;99620.72;5168297;54;1140880;-72
2023/08/29 21:10:48;;;;;;;7.73;6.57;;;;;;;16.86;100.00;99617.88;5050190;57;1138663;-70
2023/08/29 21:15:54;;;;;;;13.77;6.73;;;;;;;16.85;100.00;99632.23;5048534;57;1138897;-70
2023/08/29 21:21:02;;;;;;;9.77;6.17;;;;;;;16.83;100.00;99641.76;5142816;55;1140958;-66
2023/08/29 21:26:08;;;;;;;9.60;6.07;;;;;;;16.80;100.00;99652.00;5163352;55;1138974;-69
2023/08/29 21:31:14;;;;;;;9.30;5.67;;;;;;;16.81;100.00;99657.63;5143112;55;1138843;-67
2023/08/29 21:36:20;;;;;;;7.47;6.47;;;;;;;16.82;100.00;99676.66;5142722;55;1138511;-67
2023/08/29 21:41:25;;;;;;;7.70;6.50;;;;;;;16.82;100.00;99682.83;5164245;55;1138724;-71
2023/08/29 21:46:31;;;;;;;9.65;6.45;;;;;;;16.85;100.00;99681.64;5045017;56;1138682;-67
2023/08/29 21:51:36;;;;;;;7.85;7.05;;;;;;;16.79;100.00;99677.88;5144373;55;1139025;-70
2023/08/29 21:56:44;;;;;;;8.40;7.42;;;;;;;16.77;100.00;99675.05;5237373;55;1138773;-68
2023/08/29 22:01:49;;;;;;;8.27;7.47;;;;;;;16.72;100.00;99681.42;5271964;54;1138890;-68
2023/08/29 22:06:55;;;;;;;11.40;7.47;;;;;;;16.71;100.00;99685.93;5231077;54;1138719;-71
2023/08/29 22:12:03;;;;;;;10.17;8.03;;;;;;;16.76;100.00;99694.24;5231553;54;1140949;-71
2023/08/29 22:17:07;;;;;;;11.40;7.40;;;;;;;16.81;100.00;99693.69;5071522;55;1140944;-71
2023/08/29 22:22:13;;;;;;;10.67;6.90;;;;;;;16.85;100.00;99683.81;5043648;56;1140823;-68
2023/08/29 22:27:20;;;;;;;7.33;6.33;;;;;;;16.91;100.00;99684.94;5054380;56;1140750;-71
2023/08/29 22:32:26;;;;;;;7.90;6.90;;;;;;;16.90;100.00;99679.27;5150445;56;1144825;-70
2023/08/29 22:37:31;;;;;;;9.88;7.30;;;;;;;16.85;100.00;99675.80;5130579;56;1138577;-67
2023/08/29 22:42:37;;;;;;;9.73;6.73;;;;;;;16.84;100.00;99660.78;5130949;56;1138892;-70
2023/08/29 22:47:43;;;;;;;7.20;5.97;;;;;;;16.84;100.00;99635.91;5151339;56;1138425;-67
2023/08/29 22:52:50;;;;;;;6.30;5.70;;;;;;;16.77;100.00;99634.98;5145656;55;1138814;-66
2023/08/29 22:57:55;;;;;;;7.10;6.40;;;;;;;16.69;100.00;99627.03;5218696;54;1138674;-67
2023/08/29 23:03:01;;;;;;;7.17;5.70;;;;;;;16.64;100.00;99615.58;5200929;55;1138698;-68
2023/08/29 23:08:07;;;;;;;9.47;6.17;;;;;;;16.61;100.00;99626.58;5160911;55;1138752;-67